sensor_id;sensor_type;location;lat;lon;timestamp;pressure;altitude;pressure_sealevel;temperature;humidity
69027;BME280;56080;47.594;19.116;2024-03-02T00:01:49;99592;;;10.54;100.00
69027;BME280;56080;47.594;19.116;2024-03-02T00:11:51;99599;;;10.25;100.00
69027;BME280;56080;47.594;19.116;2024-03-02T00:21:51;99590;;;9.93;100.00
69027;BME280;56080;47.594;19.116;2024-03-02T00:31:53;99581;;;9.95;100.00
69027;BME280;56080;47.594;19.116;2024-03-02T00:41:52;99583;;;9.99;100.00
69027;BME280;56080;47.594;19.116;2024-03-02T00:51:54;99593;;;9.95;100.00
69027;BME280;56080;47.594;19.116;2024-03-02T01:01:54;99598;;;9.71;100.00
69027;BME280;56080;47.594;19.116;2024-03-02T01:11:55;99595;;;9.74;100.00
69027;BME280;56080;47.594;19.116;2024-03-02T01:21:56;99581;;;9.65;100.00
69027;BME280;56080;47.594;19.116;2024-03-02T01:31:57;99563;;;9.85;100.00
69027;BME280;56080;47.594;19.116;2024-03-02T01:41:57;99557;;;9.71;100.00
69027;BME280;56080;47.594;19.116;2024-03-02T01:51:58;99540;;;9.59;100.00
69027;BME280;56080;47.594;19.116;2024-03-02T02:01:59;99546;;;9.56;100.00
69027;BME280;56080;47.594;19.116;2024-03-02T02:12:00;99551;;;9.70;100.00
69027;BME280;56080;47.594;19.116;2024-03-02T02:22:00;99558;;;9.82;100.00
69027;BME280;56080;47.594;19.116;2024-03-02T02:32:01;99565;;;9.64;100.00
69027;BME280;56080;47.594;19.116;2024-03-02T02:42:03;99564;;;9.66;99.63
69027;BME280;56080;47.594;19.116;2024-03-02T02:52:03;99561;;;9.68;100.00
69027;BME280;56080;47.594;19.116;2024-03-02T03:02:04;99555;;;9.71;100.00
69027;BME280;56080;47.594;19.116;2024-03-02T03:12:04;99577;;;9.43;100.00
69027;BME280;56080;47.594;19.116;2024-03-02T03:22:05;99566;;;9.30;100.00
69027;BME280;56080;47.594;19.116;2024-03-02T03:32:06;99579;;;9.43;100.00
69027;BME280;56080;47.594;19.116;2024-03-02T03:52:07;99578;;;9.37;100.00
69027;BME280;56080;47.594;19.116;2024-03-02T04:02:08;99590;;;9.31;100.00
69027;BME280;56080;47.594;19.116;2024-03-02T04:12:08;99601;;;9.16;100.00
69027;BME280;56080;47.594;19.116;2024-03-02T04:32:09;99609;;;9.02;100.00
69027;BME280;56080;47.594;19.116;2024-03-02T04:42:10;99608;;;8.91;100.00
69027;BME280;56080;47.594;19.116;2024-03-02T04:52:11;99611;;;8.96;100.00
69027;BME280;56080;47.594;19.116;2024-03-02T05:02:14;99608;;;8.91;100.00
69027;BME280;56080;47.594;19.116;2024-03-02T05:22:13;99619;;;9.04;100.00
69027;BME280;56080;47.594;19.116;2024-03-02T05:32:14;99624;;;9.19;100.00
69027;BME280;56080;47.594;19.116;2024-03-02T05:42:14;99619;;;9.34;100.00
69027;BME280;56080;47.594;19.116;2024-03-02T05:52:15;99616;;;9.24;100.00
69027;BME280;56080;47.594;19.116;2024-03-02T06:02:15;99646;;;9.13;100.00
69027;BME280;56080;47.594;19.116;2024-03-02T06:12:18;99655;;;9.08;100.00
69027;BME280;56080;47.594;19.116;2024-03-02T06:22:19;99663;;;9.04;100.00
69027;BME280;56080;47.594;19.116;2024-03-02T06:32:18;99658;;;9.28;100.00
69027;BME280;56080;47.594;19.116;2024-03-02T06:42:18;99667;;;9.25;100.00
69027;BME280;56080;47.594;19.116;2024-03-02T06:52:22;99671;;;9.29;100.00
69027;BME280;56080;47.594;19.116;2024-03-02T07:02:20;99674;;;9.37;100.00
69027;BME280;56080;47.594;19.116;2024-03-02T07:12:21;99671;;;9.47;100.00
69027;BME280;56080;47.594;19.116;2024-03-02T07:22:22;99676;;;9.54;100.00
69027;BME280;56080;47.594;19.116;2024-03-02T07:32:22;99680;;;9.62;100.00
69027;BME280;56080;47.594;19.116;2024-03-02T07:42:23;99683;;;9.66;100.00
69027;BME280;56080;47.594;19.116;2024-03-02T07:52:24;99694;;;9.65;100.00
69027;BME280;56080;47.594;19.116;2024-03-02T08:02:24;99701;;;9.71;100.00
69027;BME280;56080;47.594;19.116;2024-03-02T08:12:25;99708;;;9.68;100.00
69027;BME280;56080;47.594;19.116;2024-03-02T08:22:26;99705;;;9.60;100.00
69027;BME280;56080;47.594;19.116;2024-03-02T08:32:27;99706;;;9.40;100.00
69027;BME280;56080;47.594;19.116;2024-03-02T08:42:27;99711;;;9.39;100.00
69027;BME280;56080;47.594;19.116;2024-03-02T08:52:28;99720;;;9.32;100.00
69027;BME280;56080;47.594;19.116;2024-03-02T09:02:29;99715;;;9.25;100.00
69027;BME280;56080;47.594;19.116;2024-03-02T09:12:29;99717;;;9.44;100.00
69027;BME280;56080;47.594;19.116;2024-03-02T09:22:30;99717;;;9.66;100.00
69027;BME280;56080;47.594;19.116;2024-03-02T09:32:31;99713;;;9.84;100.00
69027;BME280;56080;47.594;19.116;2024-03-02T09:42:33;99716;;;9.66;100.00
69027;BME280;56080;47.594;19.116;2024-03-02T09:52:32;99717;;;9.43;100.00
69027;BME280;56080;47.594;19.116;2024-03-02T10:02:33;99717;;;9.42;100.00
69027;BME280;56080;47.594;19.116;2024-03-02T10:12:34;99714;;;9.51;100.00
69027;BME280;56080;47.594;19.116;2024-03-02T10:22:35;99718;;;9.52;100.00
69027;BME280;56080;47.594;19.116;2024-03-02T10:32:36;99715;;;9.47;100.00
69027;BME280;56080;47.594;19.116;2024-03-02T10:42:37;99708;;;9.39;100.00
69027;BME280;56080;47.594;19.116;2024-03-02T10:52:37;99706;;;9.43;100.00
69027;BME280;56080;47.594;19.116;2024-03-02T11:02:38;99704;;;9.69;100.00
69027;BME280;56080;47.594;19.116;2024-03-02T11:12:39;99701;;;9.67;100.00
69027;BME280;56080;47.594;19.116;2024-03-02T11:22:39;99696;;;9.62;100.00
69027;BME280;56080;47.594;19.116;2024-03-02T11:32:40;99690;;;9.56;100.00
69027;BME280;56080;47.594;19.116;2024-03-02T11:52:42;99679;;;9.77;100.00
69027;BME280;56080;47.594;19.116;2024-03-02T12:02:47;99680;;;9.92;100.00
69027;BME280;56080;47.594;19.116;2024-03-02T12:12:43;99679;;;10.11;100.00
69027;BME280;56080;47.594;19.116;2024-03-02T12:22:44;99673;;;10.26;100.00
69027;BME280;56080;47.594;19.116;2024-03-02T12:32:45;99679;;;10.00;100.00
69027;BME280;56080;47.594;19.116;2024-03-02T12:42:46;99680;;;9.63;100.00
69027;BME280;56080;47.594;19.116;2024-03-02T12:52:54;99680;;;9.39;100.00
69027;BME280;56080;47.594;19.116;2024-03-02T13:02:48;99685;;;9.40;100.00
69027;BME280;56080;47.594;19.116;2024-03-02T13:12:48;99676;;;9.45;100.00
69027;BME280;56080;47.594;19.116;2024-03-02T13:22:49;99677;;;9.41;100.00
69027;BME280;56080;47.594;19.116;2024-03-02T13:32:49;99680;;;9.14;100.00
69027;BME280;56080;47.594;19.116;2024-03-02T13:42:51;99683;;;9.16;100.00
69027;BME280;56080;47.594;19.116;2024-03-02T13:52:51;99691;;;9.31;100.00
69027;BME280;56080;47.594;19.116;2024-03-02T14:02:52;99689;;;9.18;100.00
69027;BME280;56080;47.594;19.116;2024-03-02T14:12:53;99697;;;9.27;100.00
69027;BME280;56080;47.594;19.116;2024-03-02T14:22:53;99700;;;9.10;100.00
69027;BME280;56080;47.594;19.116;2024-03-02T14:32:54;99699;;;9.18;100.00
69027;BME280;56080;47.594;19.116;2024-03-02T14:42:56;99690;;;9.23;100.00
69027;BME280;56080;47.594;19.116;2024-03-02T14:52:57;99697;;;9.08;100.00
69027;BME280;56080;47.594;19.116;2024-03-02T15:02:57;99702;;;9.15;100.00
69027;BME280;56080;47.594;19.116;2024-03-02T15:12:58;99696;;;9.07;100.00
69027;BME280;56080;47.594;19.116;2024-03-02T15:22:58;99703;;;9.12;100.00
69027;BME280;56080;47.594;19.116;2024-03-02T15:32:59;99699;;;9.06;100.00
69027;BME280;56080;47.594;19.116;2024-03-02T15:43:00;99701;;;9.05;100.00
69027;BME280;56080;47.594;19.116;2024-03-02T15:53:04;99705;;;9.06;100.00
69027;BME280;56080;47.594;19.116;2024-03-02T16:03:01;99705;;;8.98;100.00
69027;BME280;56080;47.594;19.116;2024-03-02T16:13:03;99706;;;8.96;100.00
69027;BME280;56080;47.594;19.116;2024-03-02T16:23:03;99714;;;8.92;100.00
69027;BME280;56080;47.594;19.116;2024-03-02T16:33:04;99711;;;8.92;100.00
69027;BME280;56080;47.594;19.116;2024-03-02T16:43:05;99719;;;8.89;100.00
69027;BME280;56080;47.594;19.116;2024-03-02T16:53:06;99726;;;8.99;100.00
69027;BME280;56080;47.594;19.116;2024-03-02T17:03:07;99729;;;9.00;100.00
69027;BME280;56080;47.594;19.116;2024-03-02T17:13:07;99734;;;8.95;100.00
69027;BME280;56080;47.594;19.116;2024-03-02T17:23:08;99740;;;9.05;100.00
69027;BME280;56080;47.594;19.116;2024-03-02T17:33:09;99740;;;9.05;100.00
69027;BME280;56080;47.594;19.116;2024-03-02T17:43:11;99745;;;9.09;100.00
69027;BME280;56080;47.594;19.116;2024-03-02T17:53:10;99753;;;9.08;100.00
69027;BME280;56080;47.594;19.116;2024-03-02T18:03:11;99750;;;9.11;100.00
69027;BME280;56080;47.594;19.116;2024-03-02T18:13:12;99752;;;9.05;100.00
69027;BME280;56080;47.594;19.116;2024-03-02T18:23:12;99760;;;9.12;100.00
69027;BME280;56080;47.594;19.116;2024-03-02T18:33:14;99761;;;9.07;100.00
69027;BME280;56080;47.594;19.116;2024-03-02T18:43:14;99766;;;9.07;100.00
69027;BME280;56080;47.594;19.116;2024-03-02T18:53:15;99767;;;9.11;100.00
69027;BME280;56080;47.594;19.116;2024-03-02T19:03:16;99765;;;9.23;100.00
69027;BME280;56080;47.594;19.116;2024-03-02T19:13:17;99773;;;9.29;100.00
69027;BME280;56080;47.594;19.116;2024-03-02T19:33:18;99772;;;9.17;100.00
69027;BME280;56080;47.594;19.116;2024-03-02T19:43:20;99778;;;9.10;100.00
69027;BME280;56080;47.594;19.116;2024-03-02T19:53:20;99785;;;9.15;100.00
69027;BME280;56080;47.594;19.116;2024-03-02T20:03:22;99787;;;9.14;100.00
69027;BME280;56080;47.594;19.116;2024-03-02T20:13:22;99785;;;9.14;100.00
69027;BME280;56080;47.594;19.116;2024-03-02T20:23:22;99785;;;9.21;100.00
69027;BME280;56080;47.594;19.116;2024-03-02T20:33:23;99786;;;9.28;100.00
69027;BME280;56080;47.594;19.116;2024-03-02T20:43:24;99784;;;9.23;100.00
69027;BME280;56080;47.594;19.116;2024-03-02T20:53:25;99786;;;9.27;100.00
69027;BME280;56080;47.594;19.116;2024-03-02T21:03:25;99788;;;9.30;100.00
69027;BME280;56080;47.594;19.116;2024-03-02T21:13:26;99777;;;9.42;100.00
69027;BME280;56080;47.594;19.116;2024-03-02T21:23:29;99786;;;9.36;100.00
69027;BME280;56080;47.594;19.116;2024-03-02T21:33:28;99780;;;9.45;100.00
69027;BME280;56080;47.594;19.116;2024-03-02T21:53:30;99778;;;9.47;100.00
69027;BME280;56080;47.594;19.116;2024-03-02T22:03:31;99777;;;9.47;100.00
69027;BME280;56080;47.594;19.116;2024-03-02T22:23:32;99777;;;9.50;100.00
69027;BME280;56080;47.594;19.116;2024-03-02T22:33:33;99772;;;9.46;100.00
69027;BME280;56080;47.594;19.116;2024-03-02T22:43:34;99772;;;9.43;100.00
69027;BME280;56080;47.594;19.116;2024-03-02T22:53:36;99776;;;9.43;100.00
69027;BME280;56080;47.594;19.116;2024-03-02T23:03:36;99777;;;9.41;100.00
69027;BME280;56080;47.594;19.116;2024-03-02T23:13:36;99782;;;9.38;100.00
69027;BME280;56080;47.594;19.116;2024-03-02T23:23:38;99780;;;9.37;100.00
69027;BME280;56080;47.594;19.116;2024-03-02T23:33:40;99773;;;9.40;100.00
69027;BME280;56080;47.594;19.116;2024-03-02T23:43:39;99770;;;9.34;100.00
69027;BME280;56080;47.594;19.116;2024-03-02T23:53:39;99775;;;9.35;100.00
